createdAt,value
2022-11-16T00:02:11.242Z,59.10
2022-11-16T00:04:40.611Z,59.10
2022-11-16T00:07:09.563Z,59.10
2022-11-16T00:09:36.124Z,59.20
2022-11-16T00:12:02.673Z,59.30
2022-11-16T00:14:29.217Z,59.20
2022-11-16T00:16:55.710Z,59.20
2022-11-16T00:19:22.227Z,59.90
2022-11-16T00:21:48.723Z,59.30
2022-11-16T00:24:15.200Z,59.30
2022-11-16T00:26:41.710Z,59.20
2022-11-16T00:29:08.239Z,59.30
2022-11-16T00:31:34.767Z,59.30
2022-11-16T00:34:01.295Z,59.40
2022-11-16T00:36:27.833Z,59.30
2022-11-16T00:38:54.355Z,59.30
2022-11-16T00:41:20.846Z,59.50
2022-11-16T00:43:47.353Z,59.50
2022-11-16T00:46:13.924Z,59.30
2022-11-16T00:48:40.423Z,59.30
2022-11-16T00:51:06.914Z,59.40
2022-11-16T00:53:34.308Z,59.30
2022-11-16T00:56:00.860Z,59.40
2022-11-16T00:58:27.346Z,59.60
2022-11-16T01:00:53.925Z,59.40
2022-11-16T01:03:20.457Z,59.50
2022-11-16T01:05:48.135Z,59.40
2022-11-16T01:08:14.661Z,59.60
2022-11-16T01:10:45.681Z,59.50
2022-11-16T01:13:12.178Z,59.50
2022-11-16T01:15:38.777Z,59.40
2022-11-16T01:18:05.266Z,59.80
2022-11-16T01:20:31.740Z,59.60
2022-11-16T01:22:58.243Z,59.60
2022-11-16T01:28:05.083Z,59.70
2022-11-16T01:30:31.613Z,59.60
2022-11-16T01:32:58.243Z,59.60
2022-11-16T01:35:24.740Z,59.60
2022-11-16T01:37:51.256Z,59.60
2022-11-16T01:40:17.722Z,59.70
2022-11-16T01:42:44.300Z,59.80
2022-11-16T01:45:10.818Z,59.50
2022-11-16T01:47:37.324Z,59.80
2022-11-16T01:50:03.846Z,59.80
2022-11-16T01:52:30.337Z,60.00
2022-11-16T01:54:56.833Z,60.70
2022-11-16T01:57:23.349Z,59.90
2022-11-16T01:59:49.857Z,60.10
2022-11-16T02:02:21.600Z,60.10
2022-11-16T02:04:48.083Z,60.00
2022-11-16T02:07:14.580Z,59.90
2022-11-16T02:09:41.128Z,60.00
2022-11-16T02:12:09.624Z,60.10
2022-11-16T02:14:36.276Z,60.20
2022-11-16T02:17:02.783Z,60.20
2022-11-16T02:19:29.283Z,60.20
2022-11-16T02:21:55.768Z,59.90
2022-11-16T02:24:22.282Z,60.20
2022-11-16T02:26:48.771Z,60.10
2022-11-16T02:29:15.286Z,60.10
2022-11-16T02:31:41.798Z,60.50
2022-11-16T02:34:08.373Z,60.20
2022-11-16T02:36:34.862Z,60.10
2022-11-16T02:39:01.374Z,60.30
2022-11-16T02:41:27.915Z,60.50
2022-11-16T02:43:57.709Z,60.40
2022-11-16T02:46:33.671Z,60.50
2022-11-16T02:49:00.214Z,60.50
2022-11-16T02:51:26.691Z,60.50
2022-11-16T02:53:53.211Z,60.40
2022-11-16T02:56:19.681Z,60.40
2022-11-16T02:58:46.214Z,60.50
2022-11-16T03:01:12.776Z,60.60
2022-11-16T03:03:39.354Z,60.30
2022-11-16T03:06:05.862Z,60.30
2022-11-16T03:08:32.665Z,60.60
2022-11-16T03:10:59.567Z,60.60
2022-11-16T03:13:26.148Z,60.60
2022-11-16T03:15:52.761Z,60.60
2022-11-16T03:18:21.665Z,60.90
2022-11-16T03:23:28.552Z,60.70
2022-11-16T03:25:55.014Z,60.80
2022-11-16T03:28:21.524Z,60.80
2022-11-16T03:30:48.033Z,60.90
2022-11-16T03:33:14.612Z,60.70
2022-11-16T03:35:45.674Z,61.00
2022-11-16T03:38:12.176Z,61.00
2022-11-16T03:40:38.687Z,61.00
2022-11-16T03:43:05.188Z,61.10
2022-11-16T03:45:31.676Z,61.00
2022-11-16T03:47:58.204Z,61.20
2022-11-16T03:50:24.657Z,61.00
2022-11-16T03:52:51.188Z,61.00
2022-11-16T03:55:17.730Z,61.10
2022-11-16T03:57:45.670Z,60.90
2022-11-16T04:00:12.174Z,60.90
2022-11-16T04:02:38.652Z,61.10
2022-11-16T04:05:05.175Z,61.10
2022-11-16T04:07:31.732Z,61.20
2022-11-16T04:10:01.258Z,61.00
2022-11-16T04:12:27.757Z,61.00
2022-11-16T04:14:54.226Z,60.90
2022-11-16T04:17:20.697Z,60.90
2022-11-16T04:19:47.224Z,61.20
2022-11-16T04:22:13.701Z,61.10
2022-11-16T04:24:40.219Z,61.10
2022-11-16T04:27:09.730Z,61.00
2022-11-16T04:29:36.267Z,60.90
2022-11-16T04:32:02.850Z,61.30
2022-11-16T04:34:29.389Z,61.10
2022-11-16T04:36:55.911Z,61.10
2022-11-16T04:39:22.409Z,61.40
2022-11-16T04:41:48.926Z,61.30
2022-11-16T04:44:15.426Z,61.20
2022-11-16T04:46:41.910Z,61.40
2022-11-16T04:49:08.403Z,61.20
2022-11-16T04:51:34.902Z,61.30
2022-11-16T04:54:02.456Z,61.40
2022-11-16T04:56:28.960Z,61.40
2022-11-16T04:58:55.446Z,61.20
2022-11-16T05:01:21.975Z,61.20
2022-11-16T05:03:48.507Z,61.30
2022-11-16T05:06:15.001Z,60.90
2022-11-16T05:08:41.485Z,61.00
2022-11-16T05:11:07.979Z,61.20
2022-11-16T05:13:34.512Z,61.00
2022-11-16T05:16:01.053Z,61.10
2022-11-16T05:18:27.558Z,61.30
2022-11-16T05:20:54.050Z,61.30
2022-11-16T05:23:20.648Z,61.50
2022-11-16T05:25:47.140Z,61.20
2022-11-16T05:28:13.659Z,61.10
2022-11-16T05:30:40.165Z,61.40
2022-11-16T05:33:06.655Z,61.40
2022-11-16T05:35:33.155Z,61.40
2022-11-16T05:37:59.663Z,61.40
2022-11-16T05:43:17.414Z,61.70
2022-11-16T05:45:43.936Z,61.30
2022-11-16T05:48:10.428Z,61.30
2022-11-16T05:50:42.337Z,61.60
2022-11-16T05:53:09.412Z,62.10
2022-11-16T05:55:35.916Z,61.50
2022-11-16T05:58:02.406Z,62.00
2022-11-16T06:00:28.892Z,61.40
2022-11-16T06:02:55.438Z,61.40
2022-11-16T06:05:22.022Z,61.80
2022-11-16T06:07:48.553Z,61.50
2022-11-16T06:10:15.076Z,61.70
2022-11-16T06:12:41.619Z,61.30
2022-11-16T06:15:08.105Z,61.60
2022-11-16T06:17:34.564Z,61.40
2022-11-16T06:20:03.766Z,61.60
2022-11-16T06:22:30.290Z,61.60
2022-11-16T06:24:56.791Z,61.50
2022-11-16T06:27:23.325Z,61.70
2022-11-16T06:29:49.835Z,61.70
2022-11-16T06:32:16.363Z,61.60
2022-11-16T06:34:42.892Z,62.50
2022-11-16T06:37:09.429Z,62.20
2022-11-16T06:39:35.996Z,62.00
2022-11-16T06:42:02.516Z,61.70
2022-11-16T06:44:29.015Z,61.80
2022-11-16T06:46:55.518Z,62.00
2022-11-16T06:49:21.980Z,62.00
2022-11-16T06:51:48.450Z,62.10
2022-11-16T06:54:20.856Z,62.50
2022-11-16T06:56:47.445Z,63.00
2022-11-16T06:59:13.950Z,61.90
2022-11-16T07:01:40.533Z,62.00
2022-11-16T07:04:07.069Z,62.30
2022-11-16T07:06:33.566Z,62.50
2022-11-16T07:09:00.107Z,62.20
2022-11-16T07:11:26.639Z,62.30
2022-11-16T07:13:53.163Z,62.40
2022-11-16T07:16:19.696Z,62.70
2022-11-16T07:18:46.168Z,62.90
2022-11-16T07:21:12.667Z,63.10
2022-11-16T07:23:39.167Z,63.30
2022-11-16T07:26:09.845Z,63.40
2022-11-16T07:28:36.707Z,63.30
2022-11-16T07:31:03.397Z,63.40
2022-11-16T07:33:29.931Z,63.40
2022-11-16T07:35:56.495Z,63.40
2022-11-16T07:38:23.087Z,63.20
2022-11-16T07:40:49.596Z,63.20
2022-11-16T07:43:16.058Z,63.40
2022-11-16T07:45:42.607Z,63.30
2022-11-16T07:48:09.155Z,63.30
2022-11-16T07:50:35.670Z,63.00
2022-11-16T07:53:02.202Z,63.20
2022-11-16T07:55:28.705Z,63.10
2022-11-16T07:57:55.167Z,63.30
2022-11-16T08:03:01.985Z,63.00
2022-11-16T08:05:28.532Z,63.30
2022-11-16T08:07:55.031Z,63.20
2022-11-16T08:10:21.665Z,63.40
2022-11-16T08:12:48.237Z,63.30
2022-11-16T08:15:14.735Z,63.20
2022-11-16T08:17:41.299Z,63.20
2022-11-16T08:20:07.780Z,63.20
2022-11-16T08:22:34.288Z,63.40
2022-11-16T08:25:00.772Z,63.40
2022-11-16T08:27:27.946Z,63.40
2022-11-16T08:29:54.458Z,63.30
2022-11-16T08:32:21.020Z,63.10
2022-11-16T08:34:47.555Z,63.20
2022-11-16T08:37:14.065Z,63.20
2022-11-16T08:39:40.622Z,63.20
2022-11-16T08:42:07.129Z,63.20
2022-11-16T08:44:33.645Z,63.30
2022-11-16T08:47:00.599Z,63.30
2022-11-16T08:49:27.106Z,63.10
2022-11-16T08:51:53.597Z,63.30
2022-11-16T08:54:20.101Z,63.20
2022-11-16T08:56:46.621Z,62.90
2022-11-16T08:59:13.144Z,63.10
2022-11-16T09:01:39.952Z,62.90
2022-11-16T09:04:06.528Z,63.00
2022-11-16T09:06:33.048Z,63.10
2022-11-16T09:08:59.592Z,63.20
2022-11-16T09:11:26.115Z,63.20
2022-11-16T09:13:52.629Z,63.20
2022-11-16T09:16:19.193Z,63.30
2022-11-16T09:18:45.781Z,63.40
2022-11-16T09:21:12.282Z,63.00
2022-11-16T09:23:38.801Z,63.20
2022-11-16T09:26:05.311Z,63.10
2022-11-16T09:28:32.013Z,63.00
2022-11-16T09:30:58.766Z,62.90
2022-11-16T09:33:25.273Z,63.20
2022-11-16T09:35:51.767Z,63.20
2022-11-16T09:40:58.594Z,63.00
2022-11-16T09:43:25.067Z,62.90
2022-11-16T09:45:51.579Z,63.00
2022-11-16T09:48:18.102Z,62.90
2022-11-16T09:50:44.604Z,62.90
2022-11-16T09:53:11.127Z,62.80
2022-11-16T09:55:37.720Z,62.80
2022-11-16T09:58:04.244Z,62.60
2022-11-16T10:00:30.835Z,62.40
2022-11-16T10:02:57.413Z,62.40
2022-11-16T10:05:23.916Z,62.30
2022-11-16T10:07:50.417Z,62.40
2022-11-16T10:10:16.905Z,62.20
2022-11-16T10:12:43.520Z,62.50
2022-11-16T10:15:10.039Z,62.20
2022-11-16T10:17:36.521Z,62.20
2022-11-16T10:20:03.089Z,61.90
2022-11-16T10:22:29.586Z,61.90
2022-11-16T10:24:56.150Z,62.50
2022-11-16T10:30:03.011Z,62.20
2022-11-16T10:32:29.577Z,62.10
2022-11-16T10:34:56.165Z,61.90
2022-11-16T10:37:22.807Z,62.10
2022-11-16T10:39:49.335Z,61.90
2022-11-16T10:42:15.856Z,61.90
2022-11-16T10:44:42.433Z,61.70
2022-11-16T10:47:08.949Z,61.60
2022-11-16T10:49:35.559Z,61.60
2022-11-16T10:52:02.073Z,61.60
2022-11-16T10:54:28.619Z,62.60
2022-11-16T10:56:55.129Z,61.60
2022-11-16T10:59:21.681Z,62.00
2022-11-16T11:01:48.354Z,61.40
2022-11-16T11:04:14.886Z,61.40
2022-11-16T11:06:41.394Z,61.20
2022-11-16T11:09:08.051Z,61.60
2022-11-16T11:11:34.572Z,61.50
2022-11-16T11:14:01.131Z,61.40
2022-11-16T11:19:07.971Z,61.40
2022-11-16T11:21:34.487Z,61.10
2022-11-16T11:24:29.392Z,61.10
2022-11-16T11:26:47.619Z,61.30
2022-11-16T11:29:14.151Z,60.90
2022-11-16T11:31:40.662Z,60.40
2022-11-16T11:34:07.226Z,60.30
2022-11-16T11:36:33.702Z,60.80
2022-11-16T11:39:00.383Z,60.80
2022-11-16T11:41:26.925Z,60.80
2022-11-16T11:43:53.502Z,60.90
2022-11-16T11:46:20.116Z,60.90
2022-11-16T11:48:46.607Z,60.90
2022-11-16T11:51:13.211Z,61.00
2022-11-16T11:53:39.702Z,60.80
2022-11-16T11:56:06.213Z,60.70
2022-11-16T11:58:32.681Z,60.40
2022-11-16T12:00:59.179Z,60.70
2022-11-16T12:03:28.482Z,60.70
2022-11-16T12:05:55.005Z,60.40
2022-11-16T12:08:21.488Z,60.50
2022-11-16T12:10:48.031Z,60.50
2022-11-16T12:13:22.281Z,60.50
2022-11-16T12:15:48.803Z,60.60
2022-11-16T12:18:15.284Z,60.60
2022-11-16T12:20:41.791Z,60.60
2022-11-16T12:23:08.322Z,60.50
2022-11-16T12:25:34.820Z,60.40
2022-11-16T12:28:01.319Z,60.30
2022-11-16T12:30:27.868Z,60.40
2022-11-16T12:32:54.393Z,60.00
2022-11-16T12:35:21.077Z,60.00
2022-11-16T12:37:47.595Z,60.40
2022-11-16T12:40:14.113Z,60.10
2022-11-16T12:42:40.621Z,60.00
2022-11-16T12:45:07.155Z,59.80
2022-11-16T12:47:34.159Z,60.10
2022-11-16T12:50:00.737Z,59.90
2022-11-16T12:52:27.218Z,60.70
2022-11-16T12:55:24.250Z,59.90
2022-11-16T12:57:40.621Z,60.00
2022-11-16T13:00:07.127Z,59.80
2022-11-16T13:02:33.628Z,59.90
2022-11-16T13:05:00.123Z,59.80
2022-11-16T13:07:26.626Z,59.80
2022-11-16T13:09:53.169Z,59.40
2022-11-16T13:12:19.740Z,59.80
2022-11-16T13:14:46.338Z,59.60
2022-11-16T13:17:12.819Z,59.70
2022-11-16T13:19:39.345Z,59.70
2022-11-16T13:22:05.977Z,59.80
2022-11-16T13:24:32.556Z,59.60
2022-11-16T13:26:59.066Z,59.80
2022-11-16T13:29:25.648Z,59.80
2022-11-16T13:31:52.178Z,59.80
2022-11-16T13:34:18.933Z,59.90
2022-11-16T13:36:45.549Z,59.80
2022-11-16T13:39:15.772Z,60.00
2022-11-16T13:41:45.441Z,59.70
2022-11-16T13:44:11.983Z,59.60
2022-11-16T13:46:55.283Z,59.80
2022-11-16T13:49:22.144Z,59.70
2022-11-16T13:51:48.661Z,59.70
2022-11-16T13:54:44.807Z,59.80
2022-11-16T13:57:01.625Z,60.00
2022-11-16T13:59:28.120Z,59.70
2022-11-16T14:01:54.613Z,59.90
2022-11-16T14:04:21.130Z,59.70
2022-11-16T14:06:47.821Z,59.70
2022-11-16T14:09:14.461Z,60.50
2022-11-16T14:11:40.995Z,59.60
2022-11-16T14:14:10.153Z,59.70
2022-11-16T14:16:36.659Z,59.60
2022-11-16T14:19:03.150Z,59.80
2022-11-16T14:21:29.670Z,59.80
2022-11-16T14:23:56.260Z,59.70
2022-11-16T14:26:22.876Z,59.70
2022-11-16T14:28:49.413Z,59.70
2022-11-16T14:31:15.931Z,59.70
2022-11-16T14:33:42.429Z,59.90
2022-11-16T14:36:10.258Z,59.60
2022-11-16T14:38:36.753Z,59.60
2022-11-16T14:41:03.280Z,59.60
2022-11-16T14:43:29.767Z,59.50
2022-11-16T14:45:56.250Z,59.70
2022-11-16T14:48:22.815Z,59.60
2022-11-16T14:50:49.307Z,59.80
2022-11-16T14:53:16.095Z,59.60
2022-11-16T14:55:42.650Z,59.60
2022-11-16T14:58:09.202Z,59.60
2022-11-16T15:00:35.705Z,59.80
2022-11-16T15:03:03.035Z,59.70
2022-11-16T15:05:29.782Z,59.70
2022-11-16T15:07:56.549Z,59.70
2022-11-16T15:10:23.050Z,59.80
2022-11-16T15:12:49.546Z,59.70
2022-11-16T15:15:16.049Z,59.80
2022-11-16T15:17:42.527Z,59.90
2022-11-16T15:20:09.053Z,59.90
2022-11-16T15:22:35.564Z,59.70
2022-11-16T15:25:02.046Z,59.70
2022-11-16T15:27:34.274Z,59.80
2022-11-16T15:30:00.795Z,59.60
2022-11-16T15:32:27.336Z,59.80
2022-11-16T15:34:53.915Z,59.80
2022-11-16T15:37:20.414Z,59.90
2022-11-16T15:39:54.333Z,59.70
2022-11-16T15:42:20.853Z,59.80
2022-11-16T15:44:47.458Z,59.80
2022-11-16T15:47:14.032Z,59.90
2022-11-16T15:49:40.607Z,59.90
2022-11-16T15:52:07.130Z,59.90
2022-11-16T15:54:33.634Z,59.90
2022-11-16T15:57:00.149Z,59.80
2022-11-16T15:59:26.645Z,59.90
2022-11-16T16:01:53.157Z,60.00
2022-11-16T16:04:21.564Z,59.90
2022-11-16T16:06:48.093Z,59.90
2022-11-16T16:09:14.608Z,59.90
2022-11-16T16:11:41.086Z,59.90
2022-11-16T16:14:07.579Z,59.90
2022-11-16T16:16:34.136Z,59.90
2022-11-16T16:19:04.932Z,59.80
2022-11-16T16:21:34.837Z,59.90
2022-11-16T16:24:01.358Z,59.90
2022-11-16T16:26:27.849Z,60.60
2022-11-16T16:28:54.897Z,59.90
2022-11-16T16:31:21.410Z,59.80
2022-11-16T16:33:48.307Z,59.80
2022-11-16T16:36:14.911Z,59.80
2022-11-16T16:38:41.444Z,59.90
2022-11-16T16:41:08.028Z,59.80
2022-11-16T16:43:34.803Z,59.70
2022-11-16T16:46:04.280Z,59.90
2022-11-16T16:48:30.751Z,59.90
2022-11-16T16:50:57.227Z,59.80
2022-11-16T16:53:23.733Z,59.80
2022-11-16T16:55:52.342Z,59.90
2022-11-16T16:58:18.921Z,59.80
2022-11-16T17:00:45.507Z,59.70
2022-11-16T17:03:12.079Z,59.70
2022-11-16T17:05:38.558Z,59.70
2022-11-16T17:08:05.148Z,59.70
2022-11-16T17:10:31.690Z,59.70
2022-11-16T17:12:58.472Z,59.70
2022-11-16T17:15:27.592Z,59.70
2022-11-16T17:17:54.103Z,59.70
2022-11-16T17:20:20.645Z,59.70
2022-11-16T17:22:47.169Z,59.60
2022-11-16T17:25:13.672Z,59.60
2022-11-16T17:27:40.193Z,59.50
2022-11-16T17:30:06.734Z,59.60
2022-11-16T17:32:33.246Z,59.60
2022-11-16T17:34:59.807Z,59.50
2022-11-16T17:37:26.300Z,59.60
2022-11-16T17:39:52.812Z,59.70
2022-11-16T17:42:19.321Z,59.60
2022-11-16T17:44:45.925Z,59.60
2022-11-16T17:47:12.484Z,59.50
2022-11-16T17:49:39.066Z,59.60
2022-11-16T17:52:05.612Z,59.50
2022-11-16T17:54:32.123Z,59.70
2022-11-16T17:56:58.630Z,59.50
2022-11-16T17:59:29.815Z,59.50
2022-11-16T18:01:56.577Z,59.50
2022-11-16T18:04:28.411Z,59.70
2022-11-16T18:06:58.023Z,59.60
2022-11-16T18:09:24.580Z,59.60
2022-11-16T18:11:52.365Z,59.50
2022-11-16T18:14:18.870Z,60.20
2022-11-16T18:16:45.522Z,59.50
2022-11-16T18:19:12.042Z,59.40
2022-11-16T18:21:38.524Z,59.40
2022-11-16T18:24:04.999Z,59.40
2022-11-16T18:26:31.498Z,59.50
2022-11-16T18:28:57.969Z,59.50
2022-11-16T18:31:24.459Z,59.40
2022-11-16T18:33:51.009Z,59.50
2022-11-16T18:36:19.195Z,59.40
2022-11-16T18:38:45.754Z,59.40
2022-11-16T18:41:12.824Z,59.50
2022-11-16T18:43:39.314Z,59.40
2022-11-16T18:46:07.947Z,59.30
2022-11-16T18:48:34.581Z,59.40
2022-11-16T18:51:01.101Z,59.40
2022-11-16T18:53:27.603Z,59.30
2022-11-16T18:55:57.852Z,59.40
2022-11-16T18:58:49.328Z,59.40
2022-11-16T19:01:16.606Z,59.40
2022-11-16T19:03:43.151Z,59.40
2022-11-16T19:06:09.864Z,59.40
2022-11-16T19:08:36.366Z,59.40
2022-11-16T19:11:02.852Z,60.10
2022-11-16T19:13:29.422Z,59.30
2022-11-16T19:15:55.916Z,59.30
2022-11-16T19:18:22.518Z,59.30
2022-11-16T19:20:49.016Z,59.30
2022-11-16T19:23:15.553Z,59.30
2022-11-16T19:25:42.086Z,59.20
2022-11-16T19:28:08.644Z,59.40
2022-11-16T19:30:37.911Z,59.20
2022-11-16T19:33:04.408Z,59.30
2022-11-16T19:35:30.953Z,59.10
2022-11-16T19:37:57.437Z,59.10
2022-11-16T19:40:25.311Z,59.00
2022-11-16T19:42:51.945Z,59.20
2022-11-16T19:45:18.542Z,59.20
2022-11-16T19:47:45.129Z,59.20
2022-11-16T19:50:11.629Z,59.20
2022-11-16T19:52:38.149Z,59.20
2022-11-16T19:55:04.648Z,59.20
2022-11-16T19:57:31.156Z,59.10
2022-11-16T19:59:57.676Z,59.10
2022-11-16T20:02:28.338Z,59.10
2022-11-16T20:04:54.851Z,59.10
2022-11-16T20:07:22.528Z,59.30
2022-11-16T20:09:53.582Z,59.10
2022-11-16T20:12:22.534Z,59.10
2022-11-16T20:14:49.114Z,59.10
2022-11-16T20:17:15.648Z,59.20
2022-11-16T20:19:47.978Z,59.20
2022-11-16T20:22:14.605Z,59.10
2022-11-16T20:24:44.214Z,59.00
2022-11-16T20:27:10.751Z,59.00
2022-11-16T20:29:37.267Z,59.10
2022-11-16T20:32:03.839Z,59.00
2022-11-16T20:34:30.323Z,59.10
2022-11-16T20:36:57.350Z,59.00
2022-11-16T20:39:23.876Z,59.10
2022-11-16T20:41:50.383Z,59.10
2022-11-16T20:44:17.000Z,59.00
2022-11-16T20:46:43.499Z,59.00
2022-11-16T20:49:10.045Z,58.90
2022-11-16T20:51:36.775Z,59.00
2022-11-16T20:54:03.270Z,58.90
2022-11-16T20:56:29.815Z,58.90
2022-11-16T20:58:56.329Z,58.90
2022-11-16T21:01:22.874Z,58.90
2022-11-16T21:03:49.366Z,58.90
2022-11-16T21:06:15.894Z,58.80
2022-11-16T21:08:42.390Z,58.90
2022-11-16T21:11:08.879Z,58.80
2022-11-16T21:13:35.532Z,58.80
2022-11-16T21:16:02.255Z,58.80
2022-11-16T21:18:30.865Z,58.90
2022-11-16T21:20:57.549Z,58.80
2022-11-16T21:23:24.126Z,58.70
2022-11-16T21:28:31.004Z,59.40
2022-11-16T21:30:57.509Z,58.70
2022-11-16T21:33:24.024Z,58.60
2022-11-16T21:35:50.621Z,58.60
2022-11-16T21:38:17.123Z,58.60
2022-11-16T21:40:43.679Z,58.70
2022-11-16T21:43:10.190Z,58.70
2022-11-16T21:45:36.700Z,58.70
2022-11-16T21:48:04.578Z,58.70
2022-11-16T21:50:32.237Z,58.70
2022-11-16T21:52:59.040Z,58.70
2022-11-16T21:55:25.555Z,58.70
2022-11-16T21:57:52.131Z,58.60
2022-11-16T22:00:18.648Z,58.70
2022-11-16T22:02:45.225Z,58.60
2022-11-16T22:05:11.706Z,58.70
2022-11-16T22:07:38.199Z,58.70
2022-11-16T22:10:10.653Z,58.70
2022-11-16T22:12:37.118Z,58.70
2022-11-16T22:15:05.678Z,58.70
2022-11-16T22:17:32.206Z,58.60
2022-11-16T22:19:58.679Z,58.60
2022-11-16T22:22:25.170Z,58.60
2022-11-16T22:24:51.790Z,58.70
2022-11-16T22:27:18.534Z,58.70
2022-11-16T22:29:45.041Z,58.60
2022-11-16T22:32:11.542Z,58.60
2022-11-16T22:34:38.080Z,58.60
2022-11-16T22:37:04.581Z,58.60
2022-11-16T22:39:31.072Z,58.70
2022-11-16T22:41:57.539Z,58.60
2022-11-16T22:44:24.050Z,58.70
2022-11-16T22:46:50.628Z,58.70
2022-11-16T22:49:17.167Z,58.70
2022-11-16T22:51:43.691Z,58.70
2022-11-16T22:54:10.215Z,58.70
2022-11-16T22:56:36.720Z,58.60
2022-11-16T22:59:03.200Z,58.60
2022-11-16T23:01:29.688Z,59.40
2022-11-16T23:03:56.244Z,58.70
2022-11-16T23:06:22.734Z,58.70
2022-11-16T23:08:49.246Z,58.60
2022-11-16T23:11:15.778Z,58.60
2022-11-16T23:13:42.292Z,58.70
2022-11-16T23:16:08.889Z,58.60
2022-11-16T23:18:35.380Z,58.70
2022-11-16T23:21:01.869Z,58.70
2022-11-16T23:23:28.514Z,58.70
2022-11-16T23:25:55.018Z,58.70
2022-11-16T23:28:21.618Z,58.60
2022-11-16T23:30:48.089Z,58.70
2022-11-16T23:33:14.639Z,58.70
2022-11-16T23:35:41.152Z,58.70
2022-11-16T23:38:07.676Z,58.70
2022-11-16T23:40:34.172Z,58.70
2022-11-16T23:43:00.713Z,58.70
2022-11-16T23:45:27.216Z,58.70
2022-11-16T23:47:53.726Z,58.70
2022-11-16T23:50:20.210Z,58.80
2022-11-16T23:52:46.658Z,58.70
2022-11-16T23:55:13.184Z,58.70
2022-11-16T23:57:39.690Z,58.80
